Time;durP1;ratioP1;P1;durP2;ratioP2;P2;SDS_P1;SDS_P2;PMS_P1;PMS_P2;Temp;Humidity;BMP_temperature;BMP_pressure;BME280_temperature;BME280_humidity;BME280_pressure;Samples;Min_cycle;Max_cycle;Signal;HPM_P1;HPM_P2
2023/05/26 00:01:38;;;;;;;8.35;6.22;;;;;;;17.17;65.11;100815.22;5101853;28;20204;-65
2023/05/26 00:04:06;;;;;;;6.78;6.07;;;;;;;17.16;65.31;100823.94;5106377;28;20211;-65
2023/05/26 00:06:34;;;;;;;6.50;5.90;;;;;;;17.14;65.31;100820.50;5109220;28;20975;-63
2023/05/26 00:09:03;;;;;;;6.75;5.88;;;;;;;17.13;65.39;100826.63;5102138;28;20207;-66
2023/05/26 00:11:30;;;;;;;6.88;6.22;;;;;;;17.14;65.38;100825.72;5109946;28;20273;-63
2023/05/26 00:13:58;;;;;;;7.75;6.43;;;;;;;17.13;65.43;100835.28;5110122;28;20673;-63
2023/05/26 00:16:28;;;;;;;6.65;6.05;;;;;;;17.13;65.70;100831.84;5109627;28;20233;-62
2023/05/26 00:18:56;;;;;;;7.38;6.38;;;;;;;17.13;65.57;100824.03;5108791;28;20200;-63
2023/05/26 00:21:24;;;;;;;6.90;6.30;;;;;;;17.10;65.67;100826.69;5107554;27;20651;-65
2023/05/26 00:23:52;;;;;;;8.15;6.45;;;;;;;17.09;65.91;100825.84;5109560;27;20214;-63
2023/05/26 00:26:21;;;;;;;7.50;6.72;;;;;;;17.09;65.86;100827.59;5106253;27;20200;-64
2023/05/26 00:28:49;;;;;;;7.35;6.65;;;;;;;17.06;66.18;100832.88;5108444;28;20296;-64
2023/05/26 00:31:16;;;;;;;9.75;7.07;;;;;;;17.03;66.38;100823.41;5108685;28;20212;-62
2023/05/26 00:33:46;;;;;;;7.93;7.13;;;;;;;17.02;66.74;100828.66;5111139;28;20231;-65
2023/05/26 00:36:14;;;;;;;8.65;7.50;;;;;;;17.00;66.89;100833.88;5109511;28;20199;-62
2023/05/26 00:38:43;;;;;;;7.63;6.93;;;;;;;16.98;67.15;100840.88;5104456;28;20296;-63
2023/05/26 00:41:11;;;;;;;8.13;7.43;;;;;;;17.02;67.37;100839.91;5108159;27;20212;-63
2023/05/26 00:43:39;;;;;;;9.13;8.23;;;;;;;17.04;67.64;100834.66;5105975;28;20207;-62
2023/05/26 00:46:07;;;;;;;8.23;7.47;;;;;;;17.07;67.71;100826.78;5104139;28;20215;-62
2023/05/26 00:48:35;;;;;;;9.52;7.95;;;;;;;17.03;67.39;100826.00;5109728;28;20200;-63
2023/05/26 00:51:04;;;;;;;9.05;8.15;;;;;;;16.96;67.96;100826.19;5108000;28;20246;-62
2023/05/26 00:53:33;;;;;;;8.75;7.75;;;;;;;16.89;68.10;100826.34;5110252;28;20717;-62
2023/05/26 00:56:01;;;;;;;9.40;8.32;;;;;;;16.93;68.47;100839.28;5108276;28;20534;-63
2023/05/26 00:58:29;;;;;;;10.48;8.15;;;;;;;16.93;67.94;100828.88;5108065;28;20240;-61
2023/05/26 01:00:57;;;;;;;11.02;7.65;;;;;;;16.90;67.43;100825.47;5108386;27;20204;-61
2023/05/26 01:03:26;;;;;;;9.23;7.53;;;;;;;16.95;67.07;100829.69;5103693;28;20200;-62
2023/05/26 01:05:55;;;;;;;7.32;6.57;;;;;;;16.96;66.82;100823.59;5106811;28;20204;-62
2023/05/26 01:08:24;;;;;;;10.43;7.35;;;;;;;16.92;66.61;100824.56;5107079;27;20219;-62
2023/05/26 01:10:55;;;;;;;8.95;6.78;;;;;;;16.87;66.45;100832.50;5107680;27;20307;-62
2023/05/26 01:13:28;;;;;;;7.38;6.68;;;;;;;16.83;66.17;100836.91;5107377;28;20567;-64
2023/05/26 01:16:00;;;;;;;7.38;6.50;;;;;;;16.84;65.89;100841.22;5105293;28;20594;-62
2023/05/26 01:18:32;;;;;;;8.63;6.60;;;;;;;16.87;65.82;100832.50;5107267;28;20217;-62
2023/05/26 01:21:06;;;;;;;7.85;7.03;;;;;;;16.84;65.45;100830.81;5096851;27;21659;-63
2023/05/26 01:23:48;;;;;;;7.70;6.90;;;;;;;16.82;65.70;100832.59;5108340;28;20566;-64
2023/05/26 01:26:38;;;;;;;9.25;6.50;;;;;;;16.82;65.45;100829.97;5107770;28;20635;-64
2023/05/26 01:29:11;;;;;;;9.30;6.60;;;;;;;16.78;65.11;100833.56;5105399;27;20220;-61
2023/05/26 01:31:39;;;;;;;7.35;6.57;;;;;;;16.75;65.37;100827.56;5104892;28;20226;-62
2023/05/26 01:34:08;;;;;;;7.68;6.28;;;;;;;16.73;65.18;100832.78;5065654;28;20194;-62
2023/05/26 01:36:36;;;;;;;7.63;6.30;;;;;;;16.67;65.14;100835.53;5064554;28;20213;-62
2023/05/26 01:39:05;;;;;;;7.05;6.35;;;;;;;16.63;65.21;100839.97;5057101;28;20198;-62
2023/05/26 01:41:42;;;;;;;6.45;5.75;;;;;;;16.63;65.11;100836.50;5063302;28;20232;-64
2023/05/26 01:44:17;;;;;;;6.10;5.50;;;;;;;16.65;65.00;100832.97;5065033;28;20197;-62
2023/05/26 01:46:48;;;;;;;6.85;5.85;;;;;;;16.66;64.51;100828.63;5064804;28;20703;-64
2023/05/26 01:49:17;;;;;;;6.80;6.10;;;;;;;16.63;64.68;100828.69;5067253;28;20201;-63
2023/05/26 01:51:51;;;;;;;6.95;6.25;;;;;;;16.62;64.42;100829.59;5066803;28;20204;-61
2023/05/26 01:54:21;;;;;;;8.02;5.65;;;;;;;16.60;64.69;100839.16;5065510;28;20209;-62
2023/05/26 01:56:50;;;;;;;6.85;5.47;;;;;;;16.62;64.36;100838.25;5066406;28;20209;-64
2023/05/26 01:59:22;;;;;;;7.57;5.90;;;;;;;16.63;64.35;100839.09;5056107;28;20202;-62
2023/05/26 02:01:50;;;;;;;9.18;6.22;;;;;;;16.61;64.01;100840.91;5065959;28;20211;-63
2023/05/26 02:04:18;;;;;;;6.60;5.50;;;;;;;16.54;64.32;100834.13;5064431;28;20854;-62
2023/05/26 02:06:46;;;;;;;6.55;5.50;;;;;;;16.53;64.20;100841.09;5065931;28;20647;-62
2023/05/26 02:09:14;;;;;;;8.77;5.55;;;;;;;16.52;64.21;100835.91;5064418;28;20212;-62
2023/05/26 02:11:42;;;;;;;6.57;5.68;;;;;;;16.42;64.22;100838.72;5063391;28;20205;-63
2023/05/26 02:14:10;;;;;;;6.60;5.28;;;;;;;16.34;64.29;100843.22;5061618;28;20696;-62
2023/05/26 02:16:39;;;;;;;5.80;5.20;;;;;;;16.29;64.47;100850.28;5063756;28;20205;-62
2023/05/26 02:19:08;;;;;;;8.57;5.95;;;;;;;16.24;64.74;100856.47;5066354;28;20270;-62
2023/05/26 02:21:36;;;;;;;10.18;5.15;;;;;;;16.26;64.58;100850.34;5062395;28;20206;-62
2023/05/26 02:24:04;;;;;;;6.78;5.32;;;;;;;16.31;64.13;100848.53;5066632;28;20220;-64
2023/05/26 02:26:32;;;;;;;5.55;4.97;;;;;;;16.37;64.11;100858.78;5065348;28;20197;-63
2023/05/26 02:29:01;;;;;;;7.70;4.82;;;;;;;16.41;63.51;100846.56;5061672;28;20213;-62
2023/05/26 02:31:29;;;;;;;9.35;5.13;;;;;;;16.40;63.38;100848.31;5067239;28;20212;-62
2023/05/26 02:34:10;;;;;;;5.55;4.85;;;;;;;16.40;63.20;100850.91;5062466;28;20324;-62
2023/05/26 02:36:38;;;;;;;6.78;5.22;;;;;;;16.41;63.26;100852.59;5065152;28;20206;-62
2023/05/26 02:39:06;;;;;;;5.72;4.65;;;;;;;16.44;63.00;100846.50;5060658;28;20201;-62
2023/05/26 02:41:34;;;;;;;5.68;4.40;;;;;;;16.47;62.81;100858.59;5064635;28;20587;-67
2023/05/26 02:44:02;;;;;;;8.10;4.82;;;;;;;16.51;62.63;100855.00;5062467;28;20657;-63
2023/05/26 02:46:30;;;;;;;5.97;4.57;;;;;;;16.56;62.46;100853.16;5063218;28;20675;-62
2023/05/26 02:49:00;;;;;;;7.45;4.65;;;;;;;16.58;62.41;100857.44;5064137;28;20657;-63
2023/05/26 02:51:29;;;;;;;5.07;4.28;;;;;;;16.57;62.01;100860.06;5061462;28;20202;-62
2023/05/26 02:53:57;;;;;;;5.47;4.28;;;;;;;16.58;62.12;100856.59;5063914;28;20237;-62
2023/05/26 02:56:25;;;;;;;4.75;3.78;;;;;;;16.57;61.82;100858.34;5063656;28;20655;-62
2023/05/26 02:58:53;;;;;;;5.50;4.50;;;;;;;16.49;61.53;100855.03;5062940;28;20553;-64
2023/05/26 03:01:21;;;;;;;5.82;4.35;;;;;;;16.38;61.76;100850.06;5065204;28;20216;-62
2023/05/26 03:03:49;;;;;;;5.43;4.40;;;;;;;16.29;61.81;100855.50;5061953;28;20612;-62
2023/05/26 03:06:17;;;;;;;7.07;4.03;;;;;;;16.22;62.00;100858.25;5065278;28;20209;-63
2023/05/26 03:08:47;;;;;;;7.88;4.25;;;;;;;16.19;62.53;100859.19;5061366;28;20549;-62
2023/05/26 03:11:14;;;;;;;9.10;4.22;;;;;;;16.20;62.29;100858.31;5064415;28;20205;-63
2023/05/26 03:13:43;;;;;;;5.20;4.07;;;;;;;16.23;62.46;100860.81;5061333;28;20221;-62
2023/05/26 03:16:11;;;;;;;7.18;4.05;;;;;;;16.25;62.13;100860.81;5065370;28;20216;-63
2023/05/26 03:18:39;;;;;;;6.15;4.05;;;;;;;16.30;61.72;100857.19;5062851;28;20208;-61
2023/05/26 03:21:09;;;;;;;5.25;4.40;;;;;;;16.36;61.26;100857.06;5066641;28;20550;-63
2023/05/26 03:23:58;;;;;;;7.50;4.07;;;;;;;16.37;61.15;100856.16;5061656;28;20288;-64
2023/05/26 03:26:26;;;;;;;4.95;4.25;;;;;;;16.40;61.03;100850.06;5063566;28;20205;-63
2023/05/26 03:28:54;;;;;;;4.43;4.00;;;;;;;16.42;61.01;100854.34;5060312;28;20248;-63
2023/05/26 03:31:23;;;;;;;5.68;4.40;;;;;;;16.45;61.24;100862.94;5064133;28;20557;-61
2023/05/26 03:33:51;;;;;;;6.25;4.47;;;;;;;16.51;60.46;100858.47;5082695;28;20629;-62
2023/05/26 03:36:19;;;;;;;6.30;4.45;;;;;;;16.61;60.72;100859.13;5083507;28;20645;-67
2023/05/26 03:38:47;;;;;;;4.95;4.10;;;;;;;16.71;60.17;100870.16;5086279;28;20208;-63
2023/05/26 03:41:16;;;;;;;7.60;4.32;;;;;;;16.79;60.15;100868.25;5089704;28;20201;-65
2023/05/26 03:43:44;;;;;;;7.70;4.85;;;;;;;16.86;60.08;100868.09;5089960;28;20207;-62
2023/05/26 03:46:12;;;;;;;8.93;4.28;;;;;;;16.94;59.79;100864.41;5087384;28;20224;-62
2023/05/26 03:48:40;;;;;;;5.65;4.57;;;;;;;16.95;59.75;100867.00;5089354;28;20207;-62
2023/05/26 03:51:08;;;;;;;6.50;3.90;;;;;;;16.92;60.20;100863.63;5088691;28;20211;-62
2023/05/26 03:53:36;;;;;;;10.07;4.55;;;;;;;16.95;59.90;100867.00;5084634;28;20223;-66
2023/05/26 03:56:05;;;;;;;7.55;4.18;;;;;;;17.00;59.47;100874.69;5087655;28;20200;-64
2023/05/26 03:58:34;;;;;;;7.68;4.20;;;;;;;17.03;59.34;100869.41;5089547;28;20197;-63
2023/05/26 04:01:03;;;;;;;8.30;4.65;;;;;;;17.01;59.45;100865.97;5087875;28;20201;-62
2023/05/26 04:03:31;;;;;;;5.72;3.72;;;;;;;17.00;59.47;100869.47;5088912;28;20254;-61
2023/05/26 04:06:00;;;;;;;7.18;4.10;;;;;;;17.00;59.27;100869.47;5085274;28;20648;-63
2023/05/26 04:08:28;;;;;;;8.60;4.25;;;;;;;17.00;58.90;100874.69;5086899;28;20208;-62
2023/05/26 04:10:56;;;;;;;4.88;3.80;;;;;;;17.03;58.44;100877.22;5088111;28;20213;-61
2023/05/26 04:13:24;;;;;;;4.95;3.88;;;;;;;17.11;58.11;100878.72;5088666;28;20675;-63
2023/05/26 04:15:53;;;;;;;5.60;3.80;;;;;;;17.26;57.85;100871.41;5087156;28;20242;-65
2023/05/26 04:18:23;;;;;;;12.02;3.92;;;;;;;17.41;58.06;100875.38;5090086;28;20201;-62
2023/05/26 04:20:51;;;;;;;6.55;3.90;;;;;;;17.57;57.35;100876.69;5089030;28;20659;-62
2023/05/26 04:23:19;;;;;;;6.00;4.05;;;;;;;17.70;56.67;100872.84;5086883;28;20200;-62
2023/05/26 04:25:48;;;;;;;6.60;4.00;;;;;;;17.78;56.92;100878.72;5087444;28;20202;-62
2023/05/26 04:28:16;;;;;;;6.75;3.72;;;;;;;17.85;57.10;100872.44;5087465;28;20212;-62
2023/05/26 04:30:44;;;;;;;6.28;4.15;;;;;;;17.98;56.69;100877.31;5089531;28;20201;-62
2023/05/26 04:33:15;;;;;;;5.38;3.85;;;;;;;18.04;56.35;100871.91;5088199;28;20232;-63
2023/05/26 04:35:44;;;;;;;7.75;3.95;;;;;;;18.10;55.57;100875.19;5089395;28;20197;-65
2023/05/26 04:38:13;;;;;;;4.32;3.53;;;;;;;18.12;55.32;100872.56;5086430;28;20611;-63
2023/05/26 04:40:41;;;;;;;8.13;4.20;;;;;;;18.07;55.50;100875.28;5085923;28;20604;-63
2023/05/26 04:43:10;;;;;;;5.75;4.20;;;;;;;18.09;55.62;100877.84;5086326;28;20212;-64
2023/05/26 04:45:40;;;;;;;7.45;4.22;;;;;;;18.15;55.58;100876.81;5088778;28;20204;-63
2023/05/26 04:48:08;;;;;;;5.35;3.90;;;;;;;18.26;55.21;100878.22;5089110;28;20208;-62
2023/05/26 04:50:39;;;;;;;5.00;3.83;;;;;;;18.40;54.78;100879.53;5087875;28;20304;-63
2023/05/26 04:53:10;;;;;;;6.97;4.10;;;;;;;18.44;54.48;100879.38;5088612;28;20651;-61
2023/05/26 04:55:40;;;;;;;9.52;3.88;;;;;;;18.37;53.14;100880.47;5085743;28;20213;-62
2023/05/26 04:58:08;;;;;;;8.70;3.67;;;;;;;18.26;53.15;100880.84;5079754;28;20209;-64
2023/05/26 05:00:36;;;;;;;3.53;3.05;;;;;;;18.22;52.90;100879.19;5079497;28;20211;-61
2023/05/26 05:03:04;;;;;;;7.88;3.67;;;;;;;18.30;53.03;100879.84;5081540;28;20200;-65
2023/05/26 05:05:33;;;;;;;8.10;3.00;;;;;;;18.35;52.34;100880.53;5085818;28;20201;-61
2023/05/26 05:08:02;;;;;;;8.45;2.85;;;;;;;18.41;52.02;100876.03;5086077;28;20204;-64
2023/05/26 05:10:30;;;;;;;5.90;3.25;;;;;;;18.47;51.69;100878.44;5083816;28;20291;-63
2023/05/26 05:12:58;;;;;;;5.43;3.47;;;;;;;18.59;52.03;100870.22;5086333;28;20784;-62
2023/05/26 05:15:26;;;;;;;6.40;3.45;;;;;;;18.87;51.49;100877.22;5085098;28;20220;-65
2023/05/26 05:17:54;;;;;;;4.93;3.63;;;;;;;19.12;50.91;100874.66;5075478;28;20655;-64
2023/05/26 05:20:22;;;;;;;4.82;3.10;;;;;;;19.26;50.41;100872.44;5079883;28;20611;-63
2023/05/26 05:22:50;;;;;;;6.85;3.50;;;;;;;19.31;50.26;100876.59;5087508;28;20200;-67
2023/05/26 05:25:20;;;;;;;7.18;3.13;;;;;;;19.34;50.08;100880.00;5089599;28;20200;-63
2023/05/26 05:27:48;;;;;;;4.82;3.50;;;;;;;19.29;49.59;100874.91;5092944;28;20204;-63
2023/05/26 05:30:17;;;;;;;6.22;3.22;;;;;;;19.15;49.64;100880.63;5088298;28;20205;-63
2023/05/26 05:32:45;;;;;;;3.75;3.10;;;;;;;19.08;49.63;100884.38;5090902;28;20773;-65
2023/05/26 05:35:14;;;;;;;6.68;3.35;;;;;;;19.03;49.77;100876.66;5098647;28;20236;-65
2023/05/26 05:37:43;;;;;;;7.18;3.65;;;;;;;19.00;50.74;100879.41;5113236;27;20218;-62
2023/05/26 05:40:12;;;;;;;6.10;3.30;;;;;;;19.02;50.90;100882.78;5110170;28;20291;-62
2023/05/26 05:42:41;;;;;;;4.78;3.25;;;;;;;19.08;50.66;100883.50;5110807;28;20211;-60
2023/05/26 05:45:10;;;;;;;6.40;3.63;;;;;;;19.10;50.10;100892.97;5104025;27;20231;-62
2023/05/26 05:47:38;;;;;;;5.20;3.13;;;;;;;18.93;49.86;100890.94;5103947;28;20208;-63
2023/05/26 05:50:07;;;;;;;5.95;3.35;;;;;;;18.83;50.26;100890.38;5097682;28;20206;-62
2023/05/26 05:52:36;;;;;;;5.85;3.58;;;;;;;18.83;49.98;100890.38;5094699;28;20484;-64
2023/05/26 05:55:04;;;;;;;7.05;3.63;;;;;;;18.88;50.30;100886.75;5111304;27;20220;-63
2023/05/26 05:57:32;;;;;;;5.82;3.25;;;;;;;18.97;50.03;100891.69;5107566;28;20320;-63
2023/05/26 06:00:02;;;;;;;7.25;3.10;;;;;;;19.03;49.79;100896.69;5111448;28;20204;-63
2023/05/26 06:02:30;;;;;;;5.05;3.50;;;;;;;19.06;49.73;100892.22;5108396;28;20214;-62
2023/05/26 06:04:58;;;;;;;7.15;3.70;;;;;;;19.23;49.83;100898.66;5106916;28;20196;-63
2023/05/26 06:07:30;;;;;;;6.13;3.60;;;;;;;19.54;49.33;100893.22;5111547;28;20211;-63
2023/05/26 06:09:58;;;;;;;6.25;3.08;;;;;;;20.01;48.69;100893.31;5109531;28;20287;-64
2023/05/26 06:12:26;;;;;;;6.70;3.65;;;;;;;20.63;47.66;100882.22;5111863;27;20227;-64
2023/05/26 06:14:54;;;;;;;4.68;3.53;;;;;;;21.11;46.39;100886.38;5112216;28;20220;-64
2023/05/26 06:17:23;;;;;;;8.23;4.57;;;;;;;21.60;45.52;100879.03;5109566;28;20747;-63
2023/05/26 06:19:51;;;;;;;7.88;4.78;;;;;;;21.88;44.83;100872.59;5111343;28;20199;-64
2023/05/26 06:22:19;;;;;;;9.60;4.47;;;;;;;22.08;44.44;100880.38;5111337;28;20619;-63
2023/05/26 06:24:47;;;;;;;7.68;4.90;;;;;;;22.06;43.70;100879.63;5106224;28;20212;-63
2023/05/26 06:27:15;;;;;;;7.55;4.93;;;;;;;21.74;44.34;100882.84;5111305;28;20287;-63
2023/05/26 06:29:43;;;;;;;8.55;3.80;;;;;;;21.57;45.03;100892.28;5103733;28;20199;-64
2023/05/26 06:32:11;;;;;;;7.05;4.22;;;;;;;21.49;45.84;100885.69;5108448;28;20243;-63
2023/05/26 06:34:40;;;;;;;7.03;3.85;;;;;;;21.55;46.03;100885.44;5109758;28;20785;-64
2023/05/26 06:37:08;;;;;;;7.68;4.30;;;;;;;21.67;45.69;100890.97;5107330;28;20616;-63
2023/05/26 06:39:36;;;;;;;11.00;4.25;;;;;;;21.65;45.25;100894.56;5093503;28;20595;-63
2023/05/26 06:42:05;;;;;;;7.88;3.80;;;;;;;21.54;45.22;100889.81;5109581;28;20207;-63
2023/05/26 06:44:34;;;;;;;6.25;4.25;;;;;;;21.45;45.82;100890.22;5114477;27;20720;-66
2023/05/26 06:47:02;;;;;;;9.07;4.07;;;;;;;21.38;45.90;100896.63;5116006;27;20561;-64
2023/05/26 06:49:30;;;;;;;8.70;4.22;;;;;;;21.29;46.21;100894.38;5105131;28;20846;-64
2023/05/26 06:51:59;;;;;;;7.88;4.38;;;;;;;21.34;46.64;100895.06;5107275;28;20626;-65
2023/05/26 06:54:27;;;;;;;8.23;4.40;;;;;;;21.37;45.98;100900.19;5107406;28;20195;-62
2023/05/26 06:56:55;;;;;;;5.97;3.95;;;;;;;21.42;46.14;100890.34;5106413;28;20207;-62
2023/05/26 06:59:23;;;;;;;6.90;4.32;;;;;;;21.49;45.97;100897.03;5110051;28;20200;-63
2023/05/26 07:01:51;;;;;;;8.25;3.80;;;;;;;21.69;45.79;100897.03;5106637;28;20201;-64
2023/05/26 07:04:19;;;;;;;6.30;3.75;;;;;;;21.86;45.70;100887.53;5108699;28;20204;-64
2023/05/26 07:06:47;;;;;;;8.98;4.43;;;;;;;21.98;45.43;100889.59;5103129;28;20203;-64
2023/05/26 07:09:17;;;;;;;5.55;3.67;;;;;;;22.08;44.79;100892.66;5103360;28;20776;-66
2023/05/26 07:11:44;;;;;;;6.50;3.80;;;;;;;22.11;44.66;100903.88;5099131;28;20200;-65
2023/05/26 07:14:12;;;;;;;13.02;4.05;;;;;;;22.11;44.46;100896.00;5101501;28;20192;-64
2023/05/26 07:16:40;;;;;;;8.32;4.38;;;;;;;22.05;44.75;100892.78;5108306;28;20216;-63
2023/05/26 07:19:08;;;;;;;10.45;3.53;;;;;;;22.06;44.81;100890.13;5104921;28;20286;-64
2023/05/26 07:21:36;;;;;;;7.90;4.00;;;;;;;22.13;44.75;100894.16;5105512;28;21194;-66
2023/05/26 07:24:05;;;;;;;5.28;3.40;;;;;;;22.17;44.70;100890.50;5104429;28;20206;-64
2023/05/26 07:26:34;;;;;;;7.20;4.15;;;;;;;22.19;44.33;100893.03;5107303;28;20228;-64
2023/05/26 07:29:02;;;;;;;7.30;4.35;;;;;;;22.30;44.25;100889.94;5104991;28;20230;-64
2023/05/26 07:31:30;;;;;;;5.65;3.78;;;;;;;22.05;44.40;100891.00;5107403;28;20204;-67
2023/05/26 07:33:58;;;;;;;7.95;4.07;;;;;;;21.89;44.99;100896.13;5105720;28;20737;-65
2023/05/26 07:36:26;;;;;;;5.03;3.40;;;;;;;21.89;45.00;100895.28;5098684;28;20213;-65
2023/05/26 07:38:54;;;;;;;3.63;3.30;;;;;;;21.99;44.77;100896.56;5105832;28;20207;-64
2023/05/26 07:41:22;;;;;;;5.68;3.50;;;;;;;22.15;44.72;100894.97;5104784;28;20196;-65
2023/05/26 07:43:51;;;;;;;4.57;3.60;;;;;;;22.23;44.58;100897.22;5106945;28;20278;-65
2023/05/26 07:46:19;;;;;;;5.28;3.42;;;;;;;22.06;44.77;100898.00;5104931;28;20192;-63
2023/05/26 07:48:48;;;;;;;6.63;3.47;;;;;;;22.06;45.29;100892.75;5101760;28;20855;-62
2023/05/26 07:51:16;;;;;;;4.90;3.45;;;;;;;22.02;45.19;100896.44;5105619;28;20230;-64
2023/05/26 07:53:44;;;;;;;7.13;3.60;;;;;;;22.21;45.24;100893.84;5102466;28;20668;-64
2023/05/26 07:56:12;;;;;;;6.25;3.67;;;;;;;22.30;45.10;100895.19;5105421;28;20242;-63
2023/05/26 07:58:40;;;;;;;4.78;3.95;;;;;;;22.42;44.84;100892.84;5098762;28;21486;-64
2023/05/26 08:01:10;;;;;;;7.60;3.88;;;;;;;22.31;44.92;100896.88;5107999;28;20204;-65
2023/05/26 08:03:38;;;;;;;6.03;3.80;;;;;;;22.11;44.97;100890.75;5105655;28;20211;-65
2023/05/26 08:06:06;;;;;;;7.20;4.40;;;;;;;21.97;45.68;100894.91;5103902;28;20220;-65
2023/05/26 08:08:52;;;;;;;5.18;4.28;;;;;;;21.94;45.88;100895.91;5105031;28;20204;-65
2023/05/26 08:11:21;;;;;;;4.10;3.65;;;;;;;22.02;45.73;100896.44;5093140;28;20583;-64
2023/05/26 08:13:50;;;;;;;7.25;4.00;;;;;;;22.04;45.68;100896.34;5098696;28;20214;-63
2023/05/26 08:16:19;;;;;;;12.80;7.88;;;;;;;22.13;44.48;100898.56;5103188;28;20219;-64
2023/05/26 08:18:47;;;;;;;7.80;3.85;;;;;;;22.10;44.98;100902.19;5108918;28;20295;-65
2023/05/26 08:21:15;;;;;;;6.28;3.90;;;;;;;22.18;45.17;100904.47;5107055;28;20200;-66
2023/05/26 08:23:43;;;;;;;8.35;4.20;;;;;;;22.35;44.41;100904.56;5107912;28;20291;-66
2023/05/26 08:26:11;;;;;;;6.18;4.28;;;;;;;22.13;44.09;100895.94;5097292;27;20658;-65
2023/05/26 08:28:39;;;;;;;7.38;4.85;;;;;;;21.89;45.04;100897.91;5110306;27;20271;-66
2023/05/26 08:31:07;;;;;;;5.78;4.57;;;;;;;21.63;45.93;100901.69;5107928;27;20196;-64
2023/05/26 08:33:36;;;;;;;5.68;4.13;;;;;;;21.52;46.30;100904.75;5099364;27;20231;-65
2023/05/26 08:36:04;;;;;;;5.70;4.30;;;;;;;21.48;46.52;100903.19;5109094;28;20215;-65
2023/05/26 08:38:32;;;;;;;8.35;4.60;;;;;;;21.36;47.28;100912.44;5104677;27;20196;-66
2023/05/26 08:41:04;;;;;;;6.82;5.18;;;;;;;21.34;47.58;100902.94;5106218;27;20565;-64
2023/05/26 08:43:41;;;;;;;8.20;4.82;;;;;;;21.28;47.98;100900.53;5108062;28;20211;-65
2023/05/26 08:46:16;;;;;;;8.25;4.97;;;;;;;21.27;47.96;100902.28;5103873;27;20209;-64
2023/05/26 08:48:48;;;;;;;7.68;4.80;;;;;;;21.36;47.69;100903.72;5106151;28;20215;-65
2023/05/26 08:51:15;;;;;;;7.88;4.32;;;;;;;21.47;47.73;100898.88;5111092;27;20291;-66
2023/05/26 08:53:45;;;;;;;8.25;4.25;;;;;;;21.53;47.04;100897.75;5112653;28;20222;-66
2023/05/26 08:56:14;;;;;;;8.82;4.95;;;;;;;21.40;47.69;100902.69;5108275;27;20568;-65
2023/05/26 08:58:45;;;;;;;5.90;4.32;;;;;;;21.27;47.40;100907.53;5106135;27;20204;-66
2023/05/26 09:01:13;;;;;;;6.78;4.38;;;;;;;21.29;47.88;100907.50;5109121;28;20204;-65
2023/05/26 09:03:41;;;;;;;6.07;4.57;;;;;;;21.39;46.88;100900.94;5111018;28;20305;-66
2023/05/26 09:06:12;;;;;;;6.88;4.40;;;;;;;21.53;46.79;100897.75;5107165;27;20211;-66
2023/05/26 09:08:40;;;;;;;7.18;4.22;;;;;;;21.51;45.90;100899.59;5113084;27;20218;-68
2023/05/26 09:11:25;;;;;;;7.30;4.93;;;;;;;21.22;46.80;100894.63;5101505;28;20610;-66
2023/05/26 09:13:54;;;;;;;7.20;4.57;;;;;;;21.12;47.33;100898.56;5111346;27;20249;-66
2023/05/26 09:16:24;;;;;;;7.70;4.28;;;;;;;21.30;46.86;100898.72;5104922;27;20221;-67
2023/05/26 09:18:57;;;;;;;5.90;4.03;;;;;;;21.32;45.31;100886.38;5105704;28;20226;-65
2023/05/26 09:21:28;;;;;;;6.43;3.72;;;;;;;21.14;45.19;100895.88;5101257;28;20199;-67
2023/05/26 09:23:56;;;;;;;10.13;3.90;;;;;;;20.85;45.47;100900.56;5104847;27;21802;-65
2023/05/26 09:26:29;;;;;;;5.38;4.03;;;;;;;20.75;45.99;100894.81;5106849;27;20252;-65
2023/05/26 09:28:57;;;;;;;5.45;3.65;;;;;;;20.89;45.46;100898.66;5109683;27;20238;-69
2023/05/26 09:31:26;;;;;;;6.25;3.58;;;;;;;21.10;43.90;100892.53;5097219;28;20203;-67
2023/05/26 09:33:54;;;;;;;6.43;3.95;;;;;;;21.28;43.66;100884.78;5096553;27;20713;-67
2023/05/26 09:36:26;;;;;;;4.03;3.38;;;;;;;21.47;43.82;100891.00;5109542;27;20212;-67
2023/05/26 09:38:55;;;;;;;5.35;3.72;;;;;;;21.56;44.03;100890.59;5105005;27;20582;-67
2023/05/26 09:41:36;;;;;;;5.55;3.58;;;;;;;21.70;43.92;100898.72;5105527;27;20204;-65
2023/05/26 09:44:11;;;;;;;7.60;3.72;;;;;;;21.67;43.73;100901.47;5105668;27;20200;-64
2023/05/26 09:46:40;;;;;;;6.43;4.00;;;;;;;21.46;44.28;100900.63;5104840;27;20590;-66
2023/05/26 09:49:10;;;;;;;5.32;3.38;;;;;;;21.63;44.19;100892.03;5102575;28;20572;-65
2023/05/26 09:51:40;;;;;;;7.32;4.18;;;;;;;21.78;43.45;100890.50;5109435;27;20208;-64
2023/05/26 09:54:10;;;;;;;7.25;3.60;;;;;;;21.88;43.40;100888.31;5103968;27;20287;-66
2023/05/26 09:56:45;;;;;;;5.05;3.65;;;;;;;22.14;42.84;100901.13;5110170;27;20239;-67
2023/05/26 09:59:16;;;;;;;4.55;3.60;;;;;;;22.12;41.70;100891.59;5107801;27;20211;-65
2023/05/26 10:01:45;;;;;;;7.97;4.03;;;;;;;21.82;42.58;100883.34;5104553;28;20203;-65
2023/05/26 10:04:15;;;;;;;4.93;3.65;;;;;;;21.75;42.71;100898.50;5105832;27;20240;-68
2023/05/26 10:06:46;;;;;;;6.85;3.50;;;;;;;22.42;41.80;100895.47;5107203;28;20203;-68
2023/05/26 10:09:15;;;;;;;7.22;3.63;;;;;;;23.85;38.98;100891.81;5100859;27;20200;-66
2023/05/26 10:11:47;;;;;;;5.40;3.30;;;;;;;24.08;37.90;100889.72;5101772;28;20291;-66
2023/05/26 10:14:17;;;;;;;7.05;3.08;;;;;;;23.95;37.73;100886.91;5103245;27;20241;-66
2023/05/26 10:16:45;;;;;;;11.55;3.47;;;;;;;24.06;37.90;100887.19;5108359;28;20636;-67
2023/05/26 10:19:15;;;;;;;6.57;3.05;;;;;;;25.59;35.71;100872.31;5107905;28;20280;-66
2023/05/26 10:21:48;;;;;;;6.53;3.47;;;;;;;27.20;32.49;100880.50;5109439;28;20200;-67
2023/05/26 10:24:26;;;;;;;7.88;3.33;;;;;;;28.78;29.47;100871.94;5100731;27;20214;-67
2023/05/26 10:27:03;;;;;;;4.40;3.13;;;;;;;28.42;28.84;100873.69;5103021;27;20219;-67
2023/05/26 10:29:47;;;;;;;6.28;3.58;;;;;;;27.29;30.41;100879.88;5108628;28;20203;-68
2023/05/26 10:32:48;;;;;;;5.30;2.95;;;;;;;27.18;30.60;100879.75;5111788;28;20226;-67
2023/05/26 10:35:27;;;;;;;7.05;2.97;;;;;;;28.82;28.69;100868.94;5103776;28;20200;-66
2023/05/26 10:37:58;;;;;;;7.40;3.15;;;;;;;30.12;25.40;100863.34;5101153;27;20212;-67
2023/05/26 10:40:30;;;;;;;10.38;3.20;;;;;;;29.57;25.98;100865.88;5106120;28;20214;-66
2023/05/26 10:43:00;;;;;;;5.70;2.72;;;;;;;29.56;26.23;100871.28;5109987;27;20196;-67
2023/05/26 10:45:32;;;;;;;5.13;3.00;;;;;;;29.74;26.45;100863.72;5106825;28;20593;-68
2023/05/26 10:48:07;;;;;;;4.53;2.60;;;;;;;30.84;24.64;100864.59;5106879;28;20200;-67
2023/05/26 10:51:07;;;;;;;5.88;3.00;;;;;;;31.80;23.01;100868.81;5106889;28;20565;-66
2023/05/26 10:53:41;;;;;;;4.47;2.80;;;;;;;32.02;22.11;100860.63;5111728;28;20210;-67
2023/05/26 10:56:11;;;;;;;4.70;2.83;;;;;;;32.12;22.31;100858.81;5110090;27;20228;-66
2023/05/26 10:58:41;;;;;;;5.28;3.00;;;;;;;32.95;21.54;100859.31;5110994;28;20215;-65
2023/05/26 11:01:11;;;;;;;5.50;3.22;;;;;;;32.96;20.49;100853.00;5111747;28;20626;-65
2023/05/26 11:03:42;;;;;;;4.78;3.00;;;;;;;32.20;21.69;100847.47;5116145;27;20207;-65
2023/05/26 11:06:15;;;;;;;6.15;3.00;;;;;;;31.80;21.94;100852.81;5110304;28;20295;-65
2023/05/26 11:08:46;;;;;;;3.65;3.00;;;;;;;30.88;23.11;100861.53;5103529;27;20207;-66
2023/05/26 11:11:28;;;;;;;4.07;2.60;;;;;;;30.86;22.31;100849.31;5107190;28;20204;-65
2023/05/26 11:14:04;;;;;;;4.53;2.80;;;;;;;31.36;22.02;100853.03;5109590;28;20539;-65
2023/05/26 11:16:36;;;;;;;5.85;2.58;;;;;;;31.50;21.79;100851.84;5107803;28;20668;-66
2023/05/26 11:19:05;;;;;;;3.45;2.70;;;;;;;31.64;21.51;100846.16;5111177;28;20251;-68
2023/05/26 11:21:34;;;;;;;4.65;2.58;;;;;;;31.33;21.79;100852.47;5107327;28;20212;-65
2023/05/26 11:24:05;;;;;;;4.95;2.75;;;;;;;31.84;21.79;100846.22;5104517;28;20214;-67
2023/05/26 11:26:34;;;;;;;4.65;2.70;;;;;;;32.31;20.41;100843.84;5104656;28;20540;-67
2023/05/26 11:29:04;;;;;;;5.15;2.67;;;;;;;31.20;22.21;100850.84;5107416;28;20199;-66
2023/05/26 11:31:32;;;;;;;4.88;2.80;;;;;;;31.43;22.34;100842.72;5111132;28;20211;-65
2023/05/26 11:34:01;;;;;;;5.35;2.58;;;;;;;31.67;21.85;100843.25;5110047;28;20639;-66
2023/05/26 11:36:29;;;;;;;7.72;3.17;;;;;;;31.77;21.33;100835.25;5111155;28;20204;-66